Terminal Aerodrome Forecast
Issued by NWS

Home | Current Version | Previous Version | Text Only | Print | Product List | Glossary On
Versions: 1 2 3 4 5 6 7 8 9 10 11 12 13 14 15 16 17 18 19 20 21 22 23 24 25 26 27 28 29 30 31 32 33 34
000
FTUS42 KRAH 010521
TAFINT
TAF
KINT 010521Z 0106/0206 VRB03KT P6SM BKN150
     FM011800 21012G18KT P6SM SCT025 BKN100
     FM012200 20008KT P6SM BKN035
     FM020300 18008KT 4SM -RA BR OVC015=

USA.gov is the U.S. government's official web portal to all federal, state and local government web resources and services.